Terminal Aerodrome Forecast
Issued by NWS

Home | Current Version | Previous Version | Graphics & Text | Print | Product List | Glossary On
Versions: 1 2 3 4 5 6 7 8 9 10 11 12 13 14 15 16 17 18 19 20 21 22 23 24 25
104
FTUS43 KLOT 201125
TAFDPA
TAF
KDPA 201125Z 2012/2112 06012KT P6SM VCSH OVC012
     FM201430 09012G18KT 4SM RA VCTS OVC007CB
     FM201900 10012G18KT 6SM -DZ BR VCSH OVC009
     FM210100 17008KT P6SM SCT025 BKN100
     FM211000 24012G20KT P6SM SCT040=

USA.gov is the U.S. government's official web portal to all federal, state and local government web resources and services.